sensor_id;sensor_type;location;lat;lon;timestamp;temperature;humidity
67820;DHT22;54618;52.018;5.576;2024-02-28T00:01:50;3.10;85.90
67820;DHT22;54618;52.018;5.576;2024-02-28T00:04:15;3.10;85.70
67820;DHT22;54618;52.018;5.576;2024-02-28T00:06:41;3.10;86.50
67820;DHT22;54618;52.018;5.576;2024-02-28T00:09:07;3.10;86.20
67820;DHT22;54618;52.018;5.576;2024-02-28T00:11:32;3.10;86.40
67820;DHT22;54618;52.018;5.576;2024-02-28T00:13:58;3.10;87.10
67820;DHT22;54618;52.018;5.576;2024-02-28T00:16:27;3.10;86.40
67820;DHT22;54618;52.018;5.576;2024-02-28T00:18:53;3.10;86.70
67820;DHT22;54618;52.018;5.576;2024-02-28T00:21:19;3.10;86.70
67820;DHT22;54618;52.018;5.576;2024-02-28T00:23:44;3.10;87.30
67820;DHT22;54618;52.018;5.576;2024-02-28T00:26:12;3.20;87.60
67820;DHT22;54618;52.018;5.576;2024-02-28T00:28:37;3.10;87.20
67820;DHT22;54618;52.018;5.576;2024-02-28T00:31:03;3.20;86.90
67820;DHT22;54618;52.018;5.576;2024-02-28T00:33:28;3.10;86.40
67820;DHT22;54618;52.018;5.576;2024-02-28T00:35:54;3.20;86.30
67820;DHT22;54618;52.018;5.576;2024-02-28T00:38:20;3.20;86.10
67820;DHT22;54618;52.018;5.576;2024-02-28T00:40:45;3.20;86.00
67820;DHT22;54618;52.018;5.576;2024-02-28T00:43:11;3.20;86.00
67820;DHT22;54618;52.018;5.576;2024-02-28T00:45:36;3.20;86.00
67820;DHT22;54618;52.018;5.576;2024-02-28T00:48:03;3.20;86.30
67820;DHT22;54618;52.018;5.576;2024-02-28T00:50:28;3.20;86.20
67820;DHT22;54618;52.018;5.576;2024-02-28T00:52:54;3.20;86.60
67820;DHT22;54618;52.018;5.576;2024-02-28T00:55:19;3.20;86.20
67820;DHT22;54618;52.018;5.576;2024-02-28T00:57:45;3.20;86.10
67820;DHT22;54618;52.018;5.576;2024-02-28T01:00:11;3.20;86.20
67820;DHT22;54618;52.018;5.576;2024-02-28T01:02:37;3.20;86.10
67820;DHT22;54618;52.018;5.576;2024-02-28T01:05:03;3.20;86.00
67820;DHT22;54618;52.018;5.576;2024-02-28T01:07:28;3.20;86.10
67820;DHT22;54618;52.018;5.576;2024-02-28T01:09:54;3.20;86.10
67820;DHT22;54618;52.018;5.576;2024-02-28T01:12:20;3.20;86.20
67820;DHT22;54618;52.018;5.576;2024-02-28T01:14:45;3.20;86.40
67820;DHT22;54618;52.018;5.576;2024-02-28T01:17:11;3.20;86.30
67820;DHT22;54618;52.018;5.576;2024-02-28T01:19:36;3.20;86.30
67820;DHT22;54618;52.018;5.576;2024-02-28T01:22:02;3.20;86.20
67820;DHT22;54618;52.018;5.576;2024-02-28T01:24:28;3.20;86.40
67820;DHT22;54618;52.018;5.576;2024-02-28T01:26:54;3.20;86.30
67820;DHT22;54618;52.018;5.576;2024-02-28T01:29:20;3.20;86.40
67820;DHT22;54618;52.018;5.576;2024-02-28T01:31:45;3.20;86.60
67820;DHT22;54618;52.018;5.576;2024-02-28T01:34:11;3.20;86.60
67820;DHT22;54618;52.018;5.576;2024-02-28T01:36:36;3.10;86.40
67820;DHT22;54618;52.018;5.576;2024-02-28T01:39:02;3.10;86.40
67820;DHT22;54618;52.018;5.576;2024-02-28T01:41:28;3.10;86.40
67820;DHT22;54618;52.018;5.576;2024-02-28T01:43:54;3.10;86.50
67820;DHT22;54618;52.018;5.576;2024-02-28T01:46:26;3.00;86.50
67820;DHT22;54618;52.018;5.576;2024-02-28T01:48:53;3.10;86.60
67820;DHT22;54618;52.018;5.576;2024-02-28T01:51:19;3.00;86.80
67820;DHT22;54618;52.018;5.576;2024-02-28T01:53:45;3.00;86.70
67820;DHT22;54618;52.018;5.576;2024-02-28T01:56:13;3.00;86.80
67820;DHT22;54618;52.018;5.576;2024-02-28T01:58:39;3.00;87.10
67820;DHT22;54618;52.018;5.576;2024-02-28T02:01:05;2.90;86.90
67820;DHT22;54618;52.018;5.576;2024-02-28T02:03:32;2.90;88.20
67820;DHT22;54618;52.018;5.576;2024-02-28T02:06:01;2.80;88.40
67820;DHT22;54618;52.018;5.576;2024-02-28T02:08:27;2.80;88.20
67820;DHT22;54618;52.018;5.576;2024-02-28T02:10:53;2.70;88.70
67820;DHT22;54618;52.018;5.576;2024-02-28T02:13:18;2.70;88.20
67820;DHT22;54618;52.018;5.576;2024-02-28T02:15:44;2.70;88.10
67820;DHT22;54618;52.018;5.576;2024-02-28T02:18:10;2.70;87.90
67820;DHT22;54618;52.018;5.576;2024-02-28T02:20:38;2.60;88.00
67820;DHT22;54618;52.018;5.576;2024-02-28T02:23:08;2.70;87.80
67820;DHT22;54618;52.018;5.576;2024-02-28T02:25:33;2.60;87.60
67820;DHT22;54618;52.018;5.576;2024-02-28T02:27:59;2.70;87.60
67820;DHT22;54618;52.018;5.576;2024-02-28T02:30:25;2.60;88.10
67820;DHT22;54618;52.018;5.576;2024-02-28T02:32:50;2.60;88.40
67820;DHT22;54618;52.018;5.576;2024-02-28T02:35:16;2.60;89.20
67820;DHT22;54618;52.018;5.576;2024-02-28T02:37:45;2.60;88.60
67820;DHT22;54618;52.018;5.576;2024-02-28T02:40:14;2.60;88.30
67820;DHT22;54618;52.018;5.576;2024-02-28T02:42:40;2.60;88.20
67820;DHT22;54618;52.018;5.576;2024-02-28T02:45:06;2.60;87.90
67820;DHT22;54618;52.018;5.576;2024-02-28T02:47:35;2.60;88.20
67820;DHT22;54618;52.018;5.576;2024-02-28T02:50:01;2.50;88.20
67820;DHT22;54618;52.018;5.576;2024-02-28T02:52:27;2.50;88.10
67820;DHT22;54618;52.018;5.576;2024-02-28T02:54:52;2.50;88.30
67820;DHT22;54618;52.018;5.576;2024-02-28T02:57:18;2.50;88.00
67820;DHT22;54618;52.018;5.576;2024-02-28T02:59:43;2.50;87.80
67820;DHT22;54618;52.018;5.576;2024-02-28T03:02:09;2.50;87.80
67820;DHT22;54618;52.018;5.576;2024-02-28T03:04:35;2.50;87.70
67820;DHT22;54618;52.018;5.576;2024-02-28T03:07:00;2.50;87.60
67820;DHT22;54618;52.018;5.576;2024-02-28T03:09:26;2.50;88.10
67820;DHT22;54618;52.018;5.576;2024-02-28T03:11:51;2.40;88.10
67820;DHT22;54618;52.018;5.576;2024-02-28T03:14:17;2.40;88.00
67820;DHT22;54618;52.018;5.576;2024-02-28T03:16:44;2.40;87.80
67820;DHT22;54618;52.018;5.576;2024-02-28T03:19:10;2.30;87.60
67820;DHT22;54618;52.018;5.576;2024-02-28T03:21:36;2.30;87.90
67820;DHT22;54618;52.018;5.576;2024-02-28T03:24:05;2.30;88.40
67820;DHT22;54618;52.018;5.576;2024-02-28T03:26:31;2.20;88.30
67820;DHT22;54618;52.018;5.576;2024-02-28T03:28:57;2.20;88.20
67820;DHT22;54618;52.018;5.576;2024-02-28T03:31:22;2.20;88.00
67820;DHT22;54618;52.018;5.576;2024-02-28T03:33:48;2.20;88.10
67820;DHT22;54618;52.018;5.576;2024-02-28T03:36:13;2.20;87.90
67820;DHT22;54618;52.018;5.576;2024-02-28T03:38:39;2.20;87.90
67820;DHT22;54618;52.018;5.576;2024-02-28T03:41:05;2.20;87.60
67820;DHT22;54618;52.018;5.576;2024-02-28T03:43:31;2.20;87.60
67820;DHT22;54618;52.018;5.576;2024-02-28T03:45:56;2.20;87.60
67820;DHT22;54618;52.018;5.576;2024-02-28T03:48:22;2.20;87.60
67820;DHT22;54618;52.018;5.576;2024-02-28T03:50:47;2.10;87.70
67820;DHT22;54618;52.018;5.576;2024-02-28T03:53:13;2.10;87.90
67820;DHT22;54618;52.018;5.576;2024-02-28T03:55:39;2.10;88.00
67820;DHT22;54618;52.018;5.576;2024-02-28T03:58:05;2.10;88.00
67820;DHT22;54618;52.018;5.576;2024-02-28T04:00:34;2.00;88.00
67820;DHT22;54618;52.018;5.576;2024-02-28T04:03:00;2.10;88.00
67820;DHT22;54618;52.018;5.576;2024-02-28T04:05:26;2.00;87.80
67820;DHT22;54618;52.018;5.576;2024-02-28T04:07:52;2.10;88.50
67820;DHT22;54618;52.018;5.576;2024-02-28T04:10:17;2.10;89.40
67820;DHT22;54618;52.018;5.576;2024-02-28T04:12:44;2.10;89.20
67820;DHT22;54618;52.018;5.576;2024-02-28T04:15:12;2.00;88.60
67820;DHT22;54618;52.018;5.576;2024-02-28T04:17:39;2.10;88.70
67820;DHT22;54618;52.018;5.576;2024-02-28T04:20:11;2.10;88.30
67820;DHT22;54618;52.018;5.576;2024-02-28T04:22:37;2.10;88.20
67820;DHT22;54618;52.018;5.576;2024-02-28T04:25:07;2.20;88.30
67820;DHT22;54618;52.018;5.576;2024-02-28T04:27:34;2.10;87.90
67820;DHT22;54618;52.018;5.576;2024-02-28T04:30:00;2.20;88.00
67820;DHT22;54618;52.018;5.576;2024-02-28T04:32:26;2.20;87.70
67820;DHT22;54618;52.018;5.576;2024-02-28T04:34:51;2.20;88.20
67820;DHT22;54618;52.018;5.576;2024-02-28T04:37:17;2.20;87.50
67820;DHT22;54618;52.018;5.576;2024-02-28T04:39:43;2.30;88.20
67820;DHT22;54618;52.018;5.576;2024-02-28T04:42:08;2.30;88.40
67820;DHT22;54618;52.018;5.576;2024-02-28T04:44:34;2.30;88.10
67820;DHT22;54618;52.018;5.576;2024-02-28T04:46:59;2.30;88.20
67820;DHT22;54618;52.018;5.576;2024-02-28T04:49:25;2.30;88.60
67820;DHT22;54618;52.018;5.576;2024-02-28T04:51:51;2.30;88.40
67820;DHT22;54618;52.018;5.576;2024-02-28T04:54:16;2.30;88.80
67820;DHT22;54618;52.018;5.576;2024-02-28T04:56:42;2.30;88.40
67820;DHT22;54618;52.018;5.576;2024-02-28T04:59:09;2.30;88.10
67820;DHT22;54618;52.018;5.576;2024-02-28T05:01:36;2.30;88.40
67820;DHT22;54618;52.018;5.576;2024-02-28T05:04:05;2.30;87.90
67820;DHT22;54618;52.018;5.576;2024-02-28T05:06:31;2.30;87.70
67820;DHT22;54618;52.018;5.576;2024-02-28T05:08:57;2.30;87.70
67820;DHT22;54618;52.018;5.576;2024-02-28T05:11:22;2.30;87.70
67820;DHT22;54618;52.018;5.576;2024-02-28T05:13:48;2.40;87.60
67820;DHT22;54618;52.018;5.576;2024-02-28T05:16:15;2.40;87.50
67820;DHT22;54618;52.018;5.576;2024-02-28T05:18:40;2.40;87.50
67820;DHT22;54618;52.018;5.576;2024-02-28T05:21:06;2.40;87.40
67820;DHT22;54618;52.018;5.576;2024-02-28T05:23:32;2.40;87.30
67820;DHT22;54618;52.018;5.576;2024-02-28T05:25:58;2.40;87.20
67820;DHT22;54618;52.018;5.576;2024-02-28T05:28:32;2.50;87.20
67820;DHT22;54618;52.018;5.576;2024-02-28T05:30:58;2.50;87.20
67820;DHT22;54618;52.018;5.576;2024-02-28T05:33:25;2.50;87.10
67820;DHT22;54618;52.018;5.576;2024-02-28T05:35:51;2.60;87.10
67820;DHT22;54618;52.018;5.576;2024-02-28T05:38:16;2.60;87.10
67820;DHT22;54618;52.018;5.576;2024-02-28T05:40:42;2.70;87.60
67820;DHT22;54618;52.018;5.576;2024-02-28T05:43:07;2.70;87.20
67820;DHT22;54618;52.018;5.576;2024-02-28T05:45:34;2.70;87.30
67820;DHT22;54618;52.018;5.576;2024-02-28T05:47:59;2.80;87.10
67820;DHT22;54618;52.018;5.576;2024-02-28T05:50:25;2.90;87.00
67820;DHT22;54618;52.018;5.576;2024-02-28T05:52:50;2.90;87.00
67820;DHT22;54618;52.018;5.576;2024-02-28T05:55:17;2.90;87.10
67820;DHT22;54618;52.018;5.576;2024-02-28T05:57:42;2.90;87.30
67820;DHT22;54618;52.018;5.576;2024-02-28T06:00:08;3.00;87.40
67820;DHT22;54618;52.018;5.576;2024-02-28T06:02:38;3.00;88.00
67820;DHT22;54618;52.018;5.576;2024-02-28T06:05:04;3.00;88.10
67820;DHT22;54618;52.018;5.576;2024-02-28T06:07:30;3.10;87.70
67820;DHT22;54618;52.018;5.576;2024-02-28T06:09:56;3.10;87.70
67820;DHT22;54618;52.018;5.576;2024-02-28T06:12:21;3.10;88.00
67820;DHT22;54618;52.018;5.576;2024-02-28T06:14:47;3.10;87.80
67820;DHT22;54618;52.018;5.576;2024-02-28T06:17:13;3.10;87.90
67820;DHT22;54618;52.018;5.576;2024-02-28T06:19:38;3.10;87.80
67820;DHT22;54618;52.018;5.576;2024-02-28T06:22:04;3.10;87.90
67820;DHT22;54618;52.018;5.576;2024-02-28T06:24:30;3.10;87.70
67820;DHT22;54618;52.018;5.576;2024-02-28T06:26:55;3.10;87.80
67820;DHT22;54618;52.018;5.576;2024-02-28T06:29:21;3.10;88.00
67820;DHT22;54618;52.018;5.576;2024-02-28T06:31:51;3.20;88.20
67820;DHT22;54618;52.018;5.576;2024-02-28T06:34:17;3.20;88.20
67820;DHT22;54618;52.018;5.576;2024-02-28T06:36:44;3.20;88.30
67820;DHT22;54618;52.018;5.576;2024-02-28T06:39:09;3.20;88.20
67820;DHT22;54618;52.018;5.576;2024-02-28T06:41:35;3.20;88.20
67820;DHT22;54618;52.018;5.576;2024-02-28T06:44:01;3.30;88.30
67820;DHT22;54618;52.018;5.576;2024-02-28T06:46:26;3.30;88.10
67820;DHT22;54618;52.018;5.576;2024-02-28T06:48:52;3.40;88.10
67820;DHT22;54618;52.018;5.576;2024-02-28T06:51:17;3.40;88.20
67820;DHT22;54618;52.018;5.576;2024-02-28T06:53:43;3.40;88.30
67820;DHT22;54618;52.018;5.576;2024-02-28T06:56:09;3.50;88.50
67820;DHT22;54618;52.018;5.576;2024-02-28T06:58:35;3.50;88.50
67820;DHT22;54618;52.018;5.576;2024-02-28T07:01:00;3.50;88.40
67820;DHT22;54618;52.018;5.576;2024-02-28T07:03:26;3.60;88.10
67820;DHT22;54618;52.018;5.576;2024-02-28T07:05:52;3.60;88.20
67820;DHT22;54618;52.018;5.576;2024-02-28T07:08:19;3.70;88.20
67820;DHT22;54618;52.018;5.576;2024-02-28T07:10:46;3.70;88.10
67820;DHT22;54618;52.018;5.576;2024-02-28T07:13:14;3.80;88.00
67820;DHT22;54618;52.018;5.576;2024-02-28T07:15:40;3.80;87.80
67820;DHT22;54618;52.018;5.576;2024-02-28T07:18:07;3.90;87.90
67820;DHT22;54618;52.018;5.576;2024-02-28T07:20:35;3.90;88.20
67820;DHT22;54618;52.018;5.576;2024-02-28T07:23:01;4.00;88.70
67820;DHT22;54618;52.018;5.576;2024-02-28T07:25:27;4.00;88.20
67820;DHT22;54618;52.018;5.576;2024-02-28T07:27:53;4.00;88.30
67820;DHT22;54618;52.018;5.576;2024-02-28T07:30:18;4.00;88.80
67820;DHT22;54618;52.018;5.576;2024-02-28T07:32:44;4.10;88.80
67820;DHT22;54618;52.018;5.576;2024-02-28T07:35:11;4.10;88.80
67820;DHT22;54618;52.018;5.576;2024-02-28T07:37:37;4.10;89.10
67820;DHT22;54618;52.018;5.576;2024-02-28T07:40:04;4.10;88.80
67820;DHT22;54618;52.018;5.576;2024-02-28T07:42:30;4.10;89.00
67820;DHT22;54618;52.018;5.576;2024-02-28T07:44:55;4.20;89.70
67820;DHT22;54618;52.018;5.576;2024-02-28T07:47:23;4.20;90.20
67820;DHT22;54618;52.018;5.576;2024-02-28T07:49:49;4.20;90.00
67820;DHT22;54618;52.018;5.576;2024-02-28T07:52:14;4.20;89.40
67820;DHT22;54618;52.018;5.576;2024-02-28T07:54:43;4.30;90.00
67820;DHT22;54618;52.018;5.576;2024-02-28T07:57:09;4.30;89.40
67820;DHT22;54618;52.018;5.576;2024-02-28T07:59:42;4.30;90.00
67820;DHT22;54618;52.018;5.576;2024-02-28T08:02:08;4.40;89.80
67820;DHT22;54618;52.018;5.576;2024-02-28T08:04:35;4.40;89.80
67820;DHT22;54618;52.018;5.576;2024-02-28T08:07:00;4.40;89.90
67820;DHT22;54618;52.018;5.576;2024-02-28T08:09:26;4.40;90.20
67820;DHT22;54618;52.018;5.576;2024-02-28T08:11:52;4.40;90.50
67820;DHT22;54618;52.018;5.576;2024-02-28T08:14:18;4.50;90.40
67820;DHT22;54618;52.018;5.576;2024-02-28T08:16:43;4.50;90.30
67820;DHT22;54618;52.018;5.576;2024-02-28T08:19:09;4.50;90.20
67820;DHT22;54618;52.018;5.576;2024-02-28T08:21:35;4.50;90.20
67820;DHT22;54618;52.018;5.576;2024-02-28T08:24:00;4.50;90.20
67820;DHT22;54618;52.018;5.576;2024-02-28T08:26:30;4.60;90.10
67820;DHT22;54618;52.018;5.576;2024-02-28T08:28:55;4.60;90.00
67820;DHT22;54618;52.018;5.576;2024-02-28T08:31:21;4.60;89.90
67820;DHT22;54618;52.018;5.576;2024-02-28T08:33:47;4.70;89.90
67820;DHT22;54618;52.018;5.576;2024-02-28T08:36:12;4.70;90.10
67820;DHT22;54618;52.018;5.576;2024-02-28T08:38:38;4.70;90.00
67820;DHT22;54618;52.018;5.576;2024-02-28T08:41:05;4.80;90.30
67820;DHT22;54618;52.018;5.576;2024-02-28T08:43:30;4.80;90.00
67820;DHT22;54618;52.018;5.576;2024-02-28T08:45:56;4.90;90.40
67820;DHT22;54618;52.018;5.576;2024-02-28T08:48:22;4.90;90.10
67820;DHT22;54618;52.018;5.576;2024-02-28T08:50:48;5.00;90.40
67820;DHT22;54618;52.018;5.576;2024-02-28T08:53:14;5.00;90.60
67820;DHT22;54618;52.018;5.576;2024-02-28T08:55:39;5.00;90.90
67820;DHT22;54618;52.018;5.576;2024-02-28T08:58:05;5.10;91.00
67820;DHT22;54618;52.018;5.576;2024-02-28T09:00:31;5.10;90.50
67820;DHT22;54618;52.018;5.576;2024-02-28T09:02:56;5.10;90.30
67820;DHT22;54618;52.018;5.576;2024-02-28T09:05:23;5.20;90.30
67820;DHT22;54618;52.018;5.576;2024-02-28T09:07:49;5.20;90.20
67820;DHT22;54618;52.018;5.576;2024-02-28T09:10:17;5.20;90.20
67820;DHT22;54618;52.018;5.576;2024-02-28T09:12:49;5.20;90.20
67820;DHT22;54618;52.018;5.576;2024-02-28T09:15:15;5.20;90.20
67820;DHT22;54618;52.018;5.576;2024-02-28T09:17:40;5.20;91.10
67820;DHT22;54618;52.018;5.576;2024-02-28T09:20:06;5.20;90.80
67820;DHT22;54618;52.018;5.576;2024-02-28T09:22:37;5.20;90.60
67820;DHT22;54618;52.018;5.576;2024-02-28T09:25:05;5.30;90.70
67820;DHT22;54618;52.018;5.576;2024-02-28T09:27:31;5.30;90.80
67820;DHT22;54618;52.018;5.576;2024-02-28T09:29:57;5.30;91.30
67820;DHT22;54618;52.018;5.576;2024-02-28T09:32:22;5.40;91.00
67820;DHT22;54618;52.018;5.576;2024-02-28T09:34:48;5.50;91.50
67820;DHT22;54618;52.018;5.576;2024-02-28T09:37:14;5.60;91.30
67820;DHT22;54618;52.018;5.576;2024-02-28T09:39:40;5.60;91.20
67820;DHT22;54618;52.018;5.576;2024-02-28T09:42:07;5.70;90.90
67820;DHT22;54618;52.018;5.576;2024-02-28T09:44:34;5.70;91.50
67820;DHT22;54618;52.018;5.576;2024-02-28T09:46:59;5.80;91.30
67820;DHT22;54618;52.018;5.576;2024-02-28T09:49:26;5.80;91.20
67820;DHT22;54618;52.018;5.576;2024-02-28T09:51:52;5.90;90.80
67820;DHT22;54618;52.018;5.576;2024-02-28T09:54:18;5.90;90.90
67820;DHT22;54618;52.018;5.576;2024-02-28T09:56:44;5.90;91.10
67820;DHT22;54618;52.018;5.576;2024-02-28T09:59:11;5.90;91.30
67820;DHT22;54618;52.018;5.576;2024-02-28T10:01:45;5.90;91.40
67820;DHT22;54618;52.018;5.576;2024-02-28T10:04:13;5.90;91.80
67820;DHT22;54618;52.018;5.576;2024-02-28T10:06:42;6.00;91.60
67820;DHT22;54618;52.018;5.576;2024-02-28T10:09:07;6.00;92.20
67820;DHT22;54618;52.018;5.576;2024-02-28T10:11:37;6.00;92.30
67820;DHT22;54618;52.018;5.576;2024-02-28T10:14:05;6.10;91.90
67820;DHT22;54618;52.018;5.576;2024-02-28T10:16:31;6.10;91.80
67820;DHT22;54618;52.018;5.576;2024-02-28T10:18:57;6.20;92.10
67820;DHT22;54618;52.018;5.576;2024-02-28T10:21:22;6.30;91.90
67820;DHT22;54618;52.018;5.576;2024-02-28T10:23:49;6.50;91.90
67820;DHT22;54618;52.018;5.576;2024-02-28T10:26:15;6.60;91.80
67820;DHT22;54618;52.018;5.576;2024-02-28T10:28:41;6.70;91.80
67820;DHT22;54618;52.018;5.576;2024-02-28T10:31:07;6.70;91.50
67820;DHT22;54618;52.018;5.576;2024-02-28T10:33:33;6.80;91.10
67820;DHT22;54618;52.018;5.576;2024-02-28T10:36:05;6.90;91.10
67820;DHT22;54618;52.018;5.576;2024-02-28T10:38:31;7.00;91.20
67820;DHT22;54618;52.018;5.576;2024-02-28T10:41:01;7.10;91.70
67820;DHT22;54618;52.018;5.576;2024-02-28T10:43:31;7.10;91.80
67820;DHT22;54618;52.018;5.576;2024-02-28T10:46:00;7.20;91.20
67820;DHT22;54618;52.018;5.576;2024-02-28T10:48:26;7.30;91.40
67820;DHT22;54618;52.018;5.576;2024-02-28T10:50:52;7.50;91.30
67820;DHT22;54618;52.018;5.576;2024-02-28T10:53:22;7.60;90.90
67820;DHT22;54618;52.018;5.576;2024-02-28T10:55:49;7.70;90.90
67820;DHT22;54618;52.018;5.576;2024-02-28T10:58:15;7.80;90.80
67820;DHT22;54618;52.018;5.576;2024-02-28T11:00:43;8.00;90.60
67820;DHT22;54618;52.018;5.576;2024-02-28T11:03:15;8.10;90.80
67820;DHT22;54618;52.018;5.576;2024-02-28T11:05:43;8.30;90.70
67820;DHT22;54618;52.018;5.576;2024-02-28T11:08:22;8.60;90.90
67820;DHT22;54618;52.018;5.576;2024-02-28T11:10:54;8.80;90.50
67820;DHT22;54618;52.018;5.576;2024-02-28T11:13:24;9.10;90.50
67820;DHT22;54618;52.018;5.576;2024-02-28T11:15:50;9.30;90.30
67820;DHT22;54618;52.018;5.576;2024-02-28T11:18:16;9.40;90.10
67820;DHT22;54618;52.018;5.576;2024-02-28T11:20:42;9.50;90.10
67820;DHT22;54618;52.018;5.576;2024-02-28T11:23:11;9.60;90.20
67820;DHT22;54618;52.018;5.576;2024-02-28T11:25:37;9.70;90.30
67820;DHT22;54618;52.018;5.576;2024-02-28T11:28:07;9.70;90.20
67820;DHT22;54618;52.018;5.576;2024-02-28T11:30:33;9.70;90.60
67820;DHT22;54618;52.018;5.576;2024-02-28T11:32:59;9.70;90.70
67820;DHT22;54618;52.018;5.576;2024-02-28T11:35:26;9.80;90.90
67820;DHT22;54618;52.018;5.576;2024-02-28T11:37:55;9.90;91.00
67820;DHT22;54618;52.018;5.576;2024-02-28T11:40:24;10.00;91.10
67820;DHT22;54618;52.018;5.576;2024-02-28T11:42:51;10.10;91.00
67820;DHT22;54618;52.018;5.576;2024-02-28T11:45:17;10.10;90.80
67820;DHT22;54618;52.018;5.576;2024-02-28T11:47:44;10.10;91.00
67820;DHT22;54618;52.018;5.576;2024-02-28T11:50:10;10.10;91.00
67820;DHT22;54618;52.018;5.576;2024-02-28T11:52:36;10.10;91.10
67820;DHT22;54618;52.018;5.576;2024-02-28T11:55:03;10.10;91.00
67820;DHT22;54618;52.018;5.576;2024-02-28T11:57:29;10.00;91.00
67820;DHT22;54618;52.018;5.576;2024-02-28T12:00:02;10.00;91.30
67820;DHT22;54618;52.018;5.576;2024-02-28T12:02:29;10.00;91.20
67820;DHT22;54618;52.018;5.576;2024-02-28T12:05:00;10.00;91.30
67820;DHT22;54618;52.018;5.576;2024-02-28T12:07:26;10.00;91.40
67820;DHT22;54618;52.018;5.576;2024-02-28T12:09:54;10.00;91.30
67820;DHT22;54618;52.018;5.576;2024-02-28T12:12:21;9.90;91.30
67820;DHT22;54618;52.018;5.576;2024-02-28T12:14:46;9.80;91.20
67820;DHT22;54618;52.018;5.576;2024-02-28T12:17:16;9.80;91.20
67820;DHT22;54618;52.018;5.576;2024-02-28T12:19:42;9.70;91.30
67820;DHT22;54618;52.018;5.576;2024-02-28T12:22:08;9.80;91.60
67820;DHT22;54618;52.018;5.576;2024-02-28T12:24:34;9.80;91.40
67820;DHT22;54618;52.018;5.576;2024-02-28T12:27:00;9.80;91.40
67820;DHT22;54618;52.018;5.576;2024-02-28T12:29:26;9.80;91.30
67820;DHT22;54618;52.018;5.576;2024-02-28T12:31:52;9.90;91.30
67820;DHT22;54618;52.018;5.576;2024-02-28T12:34:17;9.90;91.40
67820;DHT22;54618;52.018;5.576;2024-02-28T12:36:43;9.90;91.20
67820;DHT22;54618;52.018;5.576;2024-02-28T12:39:09;9.90;91.20
67820;DHT22;54618;52.018;5.576;2024-02-28T12:41:37;9.90;91.20
67820;DHT22;54618;52.018;5.576;2024-02-28T12:44:06;9.90;91.30
67820;DHT22;54618;52.018;5.576;2024-02-28T12:46:36;9.90;91.30
67820;DHT22;54618;52.018;5.576;2024-02-28T12:49:03;9.80;91.20
67820;DHT22;54618;52.018;5.576;2024-02-28T12:51:43;9.90;91.40
67820;DHT22;54618;52.018;5.576;2024-02-28T12:54:10;9.90;91.50
67820;DHT22;54618;52.018;5.576;2024-02-28T12:56:37;10.00;91.50
67820;DHT22;54618;52.018;5.576;2024-02-28T12:59:03;10.10;91.50
67820;DHT22;54618;52.018;5.576;2024-02-28T13:01:35;10.20;91.50
67820;DHT22;54618;52.018;5.576;2024-02-28T13:04:01;10.40;91.30
67820;DHT22;54618;52.018;5.576;2024-02-28T13:06:27;10.40;91.20
67820;DHT22;54618;52.018;5.576;2024-02-28T13:08:53;10.50;91.20
67820;DHT22;54618;52.018;5.576;2024-02-28T13:11:19;10.60;91.10
67820;DHT22;54618;52.018;5.576;2024-02-28T13:13:49;10.60;91.20
67820;DHT22;54618;52.018;5.576;2024-02-28T13:16:16;10.80;91.20
67820;DHT22;54618;52.018;5.576;2024-02-28T13:18:41;10.90;91.20
67820;DHT22;54618;52.018;5.576;2024-02-28T13:21:08;10.90;91.00
67820;DHT22;54618;52.018;5.576;2024-02-28T13:23:37;11.00;90.90
67820;DHT22;54618;52.018;5.576;2024-02-28T13:26:06;11.10;90.90
67820;DHT22;54618;52.018;5.576;2024-02-28T13:28:33;11.20;90.80
67820;DHT22;54618;52.018;5.576;2024-02-28T13:31:02;11.30;90.90
67820;DHT22;54618;52.018;5.576;2024-02-28T13:33:29;11.40;90.80
67820;DHT22;54618;52.018;5.576;2024-02-28T13:35:55;11.50;91.00
67820;DHT22;54618;52.018;5.576;2024-02-28T13:38:21;11.50;90.80
67820;DHT22;54618;52.018;5.576;2024-02-28T13:40:47;11.60;90.80
67820;DHT22;54618;52.018;5.576;2024-02-28T13:43:13;11.60;90.90
67820;DHT22;54618;52.018;5.576;2024-02-28T13:45:39;11.70;90.90
67820;DHT22;54618;52.018;5.576;2024-02-28T13:48:19;11.70;90.90
67820;DHT22;54618;52.018;5.576;2024-02-28T13:50:47;11.80;90.90
67820;DHT22;54618;52.018;5.576;2024-02-28T13:53:14;12.00;90.80
67820;DHT22;54618;52.018;5.576;2024-02-28T13:55:44;12.10;90.40
67820;DHT22;54618;52.018;5.576;2024-02-28T13:58:11;12.20;90.30
67820;DHT22;54618;52.018;5.576;2024-02-28T14:00:38;12.30;90.60
67820;DHT22;54618;52.018;5.576;2024-02-28T14:03:07;12.30;90.40
67820;DHT22;54618;52.018;5.576;2024-02-28T14:05:33;12.30;90.20
67820;DHT22;54618;52.018;5.576;2024-02-28T14:08:02;12.20;90.40
67820;DHT22;54618;52.018;5.576;2024-02-28T14:10:29;12.10;90.50
67820;DHT22;54618;52.018;5.576;2024-02-28T14:12:55;12.10;90.70
67820;DHT22;54618;52.018;5.576;2024-02-28T14:15:21;12.10;90.70
67820;DHT22;54618;52.018;5.576;2024-02-28T14:17:48;12.10;90.50
67820;DHT22;54618;52.018;5.576;2024-02-28T14:20:14;12.00;90.60
67820;DHT22;54618;52.018;5.576;2024-02-28T14:22:40;11.90;90.70
67820;DHT22;54618;52.018;5.576;2024-02-28T14:25:17;11.80;90.90
67820;DHT22;54618;52.018;5.576;2024-02-28T14:27:47;11.60;90.90
67820;DHT22;54618;52.018;5.576;2024-02-28T14:30:13;11.50;91.10
67820;DHT22;54618;52.018;5.576;2024-02-28T14:32:40;11.40;91.40
67820;DHT22;54618;52.018;5.576;2024-02-28T14:35:07;11.40;91.40
67820;DHT22;54618;52.018;5.576;2024-02-28T14:37:37;11.30;91.50
67820;DHT22;54618;52.018;5.576;2024-02-28T14:40:07;11.20;91.70
67820;DHT22;54618;52.018;5.576;2024-02-28T14:42:40;11.20;91.50
67820;DHT22;54618;52.018;5.576;2024-02-28T14:45:07;11.00;91.40
67820;DHT22;54618;52.018;5.576;2024-02-28T14:47:37;11.00;91.50
67820;DHT22;54618;52.018;5.576;2024-02-28T14:50:06;10.90;91.70
67820;DHT22;54618;52.018;5.576;2024-02-28T14:52:36;10.80;91.60
67820;DHT22;54618;52.018;5.576;2024-02-28T14:55:03;10.80;91.40
67820;DHT22;54618;52.018;5.576;2024-02-28T14:57:29;10.70;91.40
67820;DHT22;54618;52.018;5.576;2024-02-28T14:59:56;10.70;91.60
67820;DHT22;54618;52.018;5.576;2024-02-28T15:02:22;10.70;91.60
67820;DHT22;54618;52.018;5.576;2024-02-28T15:04:47;10.70;91.40
67820;DHT22;54618;52.018;5.576;2024-02-28T15:07:15;10.70;91.30
67820;DHT22;54618;52.018;5.576;2024-02-28T15:09:41;10.70;91.20
67820;DHT22;54618;52.018;5.576;2024-02-28T15:12:07;10.60;91.10
67820;DHT22;54618;52.018;5.576;2024-02-28T15:14:33;10.60;91.30
67820;DHT22;54618;52.018;5.576;2024-02-28T15:16:59;10.60;91.30
67820;DHT22;54618;52.018;5.576;2024-02-28T15:19:25;10.40;91.00
67820;DHT22;54618;52.018;5.576;2024-02-28T15:21:53;10.40;91.30
67820;DHT22;54618;52.018;5.576;2024-02-28T15:24:18;10.30;91.30
67820;DHT22;54618;52.018;5.576;2024-02-28T15:26:45;10.20;91.20
67820;DHT22;54618;52.018;5.576;2024-02-28T15:29:10;10.20;91.30
67820;DHT22;54618;52.018;5.576;2024-02-28T15:31:37;10.10;91.20
67820;DHT22;54618;52.018;5.576;2024-02-28T15:34:06;10.10;91.30
67820;DHT22;54618;52.018;5.576;2024-02-28T15:36:32;10.10;91.30
67820;DHT22;54618;52.018;5.576;2024-02-28T15:38:57;10.00;91.30